Time;durP1;ratioP1;P1;durP2;ratioP2;P2;SDS_P1;SDS_P2;PMS_P1;PMS_P2;Temp;Humidity;BMP_temperature;BMP_pressure;BME280_temperature;BME280_humidity;BME280_pressure;Samples;Min_cycle;Max_cycle;Signal;HPM_P1;HPM_P2
2024/03/25 00:01:12;;;;;;;5.95;2.33;;;15.90;60.30;;;;;;5054957;28;20172;-65
2024/03/25 00:03:37;;;;;;;4.45;2.05;;;15.90;60.00;;;;;;5055321;28;20167;-64
2024/03/25 00:06:03;;;;;;;6.63;2.20;;;15.90;59.90;;;;;;5054440;28;20586;-64
2024/03/25 00:08:28;;;;;;;4.07;1.65;;;15.80;60.10;;;;;;5053909;28;20178;-65
2024/03/25 00:10:55;;;;;;;5.90;1.88;;;15.80;60.00;;;;;;5055030;28;20313;-65
2024/03/25 00:13:20;;;;;;;4.55;2.15;;;15.80;60.10;;;;;;5054157;28;20253;-63
2024/03/25 00:15:46;;;;;;;5.32;2.00;;;15.80;60.40;;;;;;5055180;28;20706;-64
2024/03/25 00:18:11;;;;;;;5.03;2.42;;;15.80;60.30;;;;;;5053307;28;20228;-65
2024/03/25 00:20:37;;;;;;;5.03;1.83;;;15.80;60.40;;;;;;5054180;28;20179;-64
2024/03/25 00:23:03;;;;;;;7.07;2.08;;;15.80;60.30;;;;;;5055155;28;20167;-64
2024/03/25 00:25:28;;;;;;;3.50;1.80;;;15.70;60.20;;;;;;5054753;28;20186;-64
2024/03/25 00:27:54;;;;;;;4.10;2.00;;;15.70;60.10;;;;;;5052957;28;20178;-64
2024/03/25 00:30:20;;;;;;;4.28;2.20;;;15.70;60.10;;;;;;5054508;28;20250;-64
2024/03/25 00:32:46;;;;;;;7.05;2.15;;;15.70;60.10;;;;;;5054058;28;20186;-64
2024/03/25 00:35:12;;;;;;;3.55;1.60;;;15.70;60.00;;;;;;5054344;28;20186;-66
2024/03/25 00:37:37;;;;;;;8.43;2.40;;;15.70;60.20;;;;;;5055006;28;20244;-65
2024/03/25 00:40:04;;;;;;;4.97;1.70;;;15.70;60.10;;;;;;5053581;28;20210;-64
2024/03/25 00:42:30;;;;;;;4.57;1.63;;;15.70;60.10;;;;;;5054425;28;20178;-65
2024/03/25 00:44:55;;;;;;;6.35;1.58;;;15.70;60.00;;;;;;5054455;28;20163;-64
2024/03/25 00:47:21;;;;;;;4.68;1.50;;;15.70;60.00;;;;;;5053451;28;20179;-64
2024/03/25 00:49:47;;;;;;;3.88;1.58;;;15.60;60.00;;;;;;5054227;28;20201;-64
2024/03/25 00:52:12;;;;;;;5.43;2.03;;;15.60;60.00;;;;;;5054209;28;20178;-64
2024/03/25 00:54:38;;;;;;;5.97;2.50;;;15.60;60.00;;;;;;5053934;28;20167;-64
2024/03/25 00:57:04;;;;;;;5.35;2.13;;;15.60;60.00;;;;;;5052892;28;20179;-64
2024/03/25 00:59:29;;;;;;;4.53;2.10;;;15.60;59.90;;;;;;5052886;28;20183;-64
2024/03/25 01:01:55;;;;;;;3.55;1.67;;;15.60;60.00;;;;;;5053507;28;20175;-64
2024/03/25 01:04:20;;;;;;;4.35;1.80;;;15.60;60.00;;;;;;5053877;28;20181;-64
2024/03/25 01:06:46;;;;;;;4.13;1.63;;;15.60;59.90;;;;;;5054108;28;20652;-64
2024/03/25 01:09:12;;;;;;;5.10;1.63;;;15.60;59.90;;;;;;5051653;28;20178;-64
2024/03/25 01:11:38;;;;;;;5.53;1.92;;;15.60;59.90;;;;;;5054196;28;20182;-65
2024/03/25 01:14:03;;;;;;;3.83;2.05;;;15.60;60.00;;;;;;5054063;28;20170;-64
2024/03/25 01:16:29;;;;;;;3.72;1.85;;;15.50;60.00;;;;;;5053068;28;20175;-64
2024/03/25 01:18:55;;;;;;;3.80;1.73;;;15.50;60.10;;;;;;5053826;28;20457;-63
2024/03/25 01:21:20;;;;;;;3.22;1.40;;;15.50;59.80;;;;;;5053842;28;20539;-64
2024/03/25 01:23:46;;;;;;;5.03;1.88;;;15.50;59.80;;;;;;5053272;28;20172;-64
2024/03/25 01:26:11;;;;;;;4.82;1.60;;;15.50;59.90;;;;;;5053290;28;20175;-63
2024/03/25 01:28:37;;;;;;;5.47;2.00;;;15.50;59.80;;;;;;5053853;28;20186;-63
2024/03/25 01:31:02;;;;;;;4.85;2.20;;;15.50;59.80;;;;;;5052838;28;20237;-63
2024/03/25 01:33:28;;;;;;;6.93;2.00;;;15.50;60.00;;;;;;5053364;28;20483;-64
2024/03/25 01:35:55;;;;;;;3.85;1.80;;;15.50;59.90;;;;;;5053719;28;20183;-65
2024/03/25 01:38:21;;;;;;;3.95;1.80;;;15.50;60.00;;;;;;5051776;28;20706;-65
2024/03/25 01:40:47;;;;;;;3.38;1.63;;;15.50;59.80;;;;;;5053309;28;20321;-64
2024/03/25 01:43:12;;;;;;;3.08;1.75;;;15.50;60.00;;;;;;5052430;28;20232;-64
2024/03/25 01:45:38;;;;;;;2.95;1.38;;;15.40;59.80;;;;;;5053491;28;20552;-64
2024/03/25 01:48:07;;;;;;;3.60;1.85;;;15.40;59.90;;;;;;5052040;28;20625;-63
2024/03/25 01:50:37;;;;;;;7.85;2.20;;;15.40;59.80;;;;;;5052636;28;20219;-64
2024/03/25 01:53:03;;;;;;;3.70;1.90;;;15.40;59.90;;;;;;5053387;28;20221;-64
2024/03/25 01:55:29;;;;;;;3.72;1.63;;;15.40;59.90;;;;;;5051746;28;20187;-64
2024/03/25 01:57:55;;;;;;;3.03;1.55;;;15.40;59.90;;;;;;5051168;28;20589;-64
2024/03/25 02:00:21;;;;;;;6.10;1.75;;;15.40;59.90;;;;;;5051676;28;20634;-64
2024/03/25 02:02:47;;;;;;;3.33;1.52;;;15.40;59.80;;;;;;5052921;28;20201;-64
2024/03/25 02:05:14;;;;;;;5.32;1.55;;;15.40;59.90;;;;;;5050962;28;20626;-64
2024/03/25 02:07:41;;;;;;;3.40;1.88;;;15.40;60.80;;;;;;5052794;28;20182;-64
2024/03/25 02:10:09;;;;;;;4.63;1.77;;;15.30;59.90;;;;;;5051691;28;20960;-64
2024/03/25 02:12:35;;;;;;;2.97;1.75;;;15.30;59.80;;;;;;5052273;28;20254;-64
2024/03/25 02:15:01;;;;;;;2.72;1.40;;;15.30;59.90;;;;;;5052751;28;20203;-63
2024/03/25 02:17:26;;;;;;;2.97;1.25;;;15.30;59.80;;;;;;5051260;28;20182;-64
2024/03/25 02:19:52;;;;;;;4.85;1.73;;;15.30;59.90;;;;;;5052215;28;20179;-64
2024/03/25 02:22:17;;;;;;;2.05;1.33;;;15.30;59.90;;;;;;5052500;28;20179;-64
2024/03/25 02:24:45;;;;;;;2.70;1.65;;;15.30;59.90;;;;;;5051616;28;20274;-64
2024/03/25 02:27:14;;;;;;;4.75;1.75;;;15.30;59.80;;;;;;5050311;28;20185;-63
2024/03/25 02:29:40;;;;;;;5.30;1.92;;;15.30;59.90;;;;;;5051230;28;20677;-63
2024/03/25 02:32:06;;;;;;;3.78;1.83;;;15.30;59.80;;;;;;5052708;28;20166;-63
2024/03/25 02:34:32;;;;;;;3.25;1.60;;;15.30;59.80;;;;;;5051639;28;20179;-65
2024/03/25 02:36:57;;;;;;;4.10;1.52;;;15.30;60.00;;;;;;5052513;28;20241;-64
2024/03/25 02:39:24;;;;;;;3.80;1.58;;;15.30;59.80;;;;;;5051428;28;20584;-64
2024/03/25 02:41:49;;;;;;;3.20;1.48;;;15.30;59.90;;;;;;5051106;28;20310;-64
2024/03/25 02:44:15;;;;;;;3.72;1.58;;;15.30;59.90;;;;;;5050961;28;20262;-64
2024/03/25 02:46:40;;;;;;;4.47;1.90;;;15.30;60.40;;;;;;5050370;28;20171;-63
2024/03/25 02:49:06;;;;;;;2.72;1.50;;;15.20;59.80;;;;;;5051327;28;20266;-63
2024/03/25 02:51:31;;;;;;;3.90;1.65;;;15.20;59.80;;;;;;5052098;28;20202;-63
2024/03/25 02:53:57;;;;;;;3.80;1.75;;;15.20;59.80;;;;;;5051483;28;20166;-64
2024/03/25 02:56:22;;;;;;;3.30;1.40;;;15.20;59.80;;;;;;5051844;28;20171;-65
2024/03/25 02:58:48;;;;;;;3.42;1.60;;;15.20;59.80;;;;;;5052087;28;20601;-64
2024/03/25 03:01:15;;;;;;;6.57;1.77;;;15.20;59.80;;;;;;5050906;28;20593;-64
2024/03/25 03:03:41;;;;;;;4.20;1.50;;;15.20;59.90;;;;;;5050860;28;20175;-65
2024/03/25 03:06:06;;;;;;;3.00;1.60;;;15.20;59.80;;;;;;5052040;28;20175;-65
2024/03/25 03:08:32;;;;;;;2.47;1.35;;;15.20;59.90;;;;;;5049757;28;20611;-65
2024/03/25 03:10:57;;;;;;;6.30;1.60;;;15.20;59.90;;;;;;5051706;28;20214;-64
2024/03/25 03:13:23;;;;;;;4.43;1.90;;;15.20;59.90;;;;;;5051512;28;20183;-64
2024/03/25 03:15:48;;;;;;;5.88;1.60;;;15.20;59.90;;;;;;5051205;28;20179;-64
2024/03/25 03:18:14;;;;;;;2.92;1.70;;;15.20;59.90;;;;;;5051570;28;20171;-65
2024/03/25 03:20:39;;;;;;;2.05;1.25;;;15.10;59.90;;;;;;5051284;28;20273;-64
2024/03/25 03:23:05;;;;;;;4.13;2.15;;;15.20;60.00;;;;;;5051115;28;20171;-64
2024/03/25 03:25:30;;;;;;;2.47;1.23;;;15.20;59.90;;;;;;5051556;28;20175;-64
2024/03/25 03:27:56;;;;;;;4.20;1.60;;;15.10;59.90;;;;;;5051661;28;20167;-64
2024/03/25 03:30:22;;;;;;;3.28;1.48;;;15.10;60.00;;;;;;5050688;28;20586;-64
2024/03/25 03:32:47;;;;;;;2.60;1.70;;;15.10;60.00;;;;;;5051647;28;20513;-64
2024/03/25 03:35:13;;;;;;;2.90;1.40;;;15.10;60.00;;;;;;5051216;28;20182;-65
2024/03/25 03:37:38;;;;;;;3.20;1.70;;;15.10;60.00;;;;;;5050884;28;20170;-65
2024/03/25 03:40:08;;;;;;;4.50;1.63;;;15.10;60.00;;;;;;5051429;28;20215;-64
2024/03/25 03:42:33;;;;;;;3.72;1.60;;;15.10;60.00;;;;;;5050833;28;20183;-64
2024/03/25 03:44:59;;;;;;;3.20;1.52;;;15.10;60.10;;;;;;5051420;28;20186;-64
2024/03/25 03:47:24;;;;;;;3.05;1.40;;;15.10;60.00;;;;;;5051430;28;20273;-64
2024/03/25 03:49:50;;;;;;;3.05;1.70;;;15.10;60.00;;;;;;5050792;28;20202;-64
2024/03/25 03:52:15;;;;;;;2.97;1.38;;;15.10;60.10;;;;;;5051304;28;20225;-65
2024/03/25 03:54:41;;;;;;;2.20;1.15;;;15.10;60.20;;;;;;5051727;28;20175;-64
2024/03/25 03:57:06;;;;;;;3.83;1.88;;;15.10;60.20;;;;;;5050661;28;20175;-65
2024/03/25 03:59:32;;;;;;;3.55;1.88;;;15.10;60.20;;;;;;5051188;28;20228;-64
2024/03/25 04:01:57;;;;;;;3.53;1.48;;;15.10;60.30;;;;;;5051265;28;20733;-64
2024/03/25 04:04:23;;;;;;;4.10;1.30;;;15.10;60.30;;;;;;5050299;28;20266;-65
2024/03/25 04:06:48;;;;;;;3.65;1.50;;;15.10;61.10;;;;;;5051553;28;20178;-65
2024/03/25 04:09:14;;;;;;;2.30;1.40;;;15.00;60.20;;;;;;5050840;28;20623;-65
2024/03/25 04:11:40;;;;;;;4.55;1.95;;;15.10;60.30;;;;;;5050555;28;20269;-65
2024/03/25 04:14:05;;;;;;;2.55;1.42;;;15.10;60.30;;;;;;5051168;28;20188;-64
2024/03/25 04:16:31;;;;;;;3.15;1.60;;;15.10;60.20;;;;;;5051126;28;20179;-64
2024/03/25 04:18:57;;;;;;;3.78;1.25;;;15.10;60.30;;;;;;5050474;28;20174;-65
2024/03/25 04:21:23;;;;;;;4.32;1.85;;;15.00;60.30;;;;;;5050899;28;20228;-65
2024/03/25 04:23:49;;;;;;;2.85;1.45;;;15.00;60.20;;;;;;5051130;28;20641;-64
2024/03/25 04:26:15;;;;;;;2.28;1.20;;;15.00;60.20;;;;;;5050186;28;20176;-64
2024/03/25 04:28:40;;;;;;;3.50;1.52;;;15.00;60.20;;;;;;5051010;28;20176;-64
2024/03/25 04:31:07;;;;;;;4.40;1.85;;;15.00;60.10;;;;;;5052598;28;20211;-64
2024/03/25 04:33:33;;;;;;;3.03;1.60;;;15.00;60.30;;;;;;5054229;28;20210;-63
2024/03/25 04:35:59;;;;;;;3.25;1.60;;;15.00;60.20;;;;;;5054772;28;20548;-65
2024/03/25 04:38:24;;;;;;;4.22;1.40;;;15.00;60.30;;;;;;5054511;28;20637;-66
2024/03/25 04:40:50;;;;;;;3.55;1.90;;;15.00;60.30;;;;;;5053921;28;20935;-65
2024/03/25 04:43:15;;;;;;;6.05;2.10;;;15.00;60.30;;;;;;5054185;28;20179;-64
2024/03/25 04:45:41;;;;;;;3.28;1.60;;;15.00;60.40;;;;;;5054841;28;20261;-64
2024/03/25 04:48:10;;;;;;;4.32;2.20;;;15.00;60.30;;;;;;5052744;28;20617;-64
2024/03/25 04:50:35;;;;;;;1.95;1.30;;;15.00;60.40;;;;;;5054541;28;20616;-64
2024/03/25 04:53:01;;;;;;;4.70;1.52;;;14.90;60.20;;;;;;5053650;28;20618;-64
2024/03/25 04:55:26;;;;;;;3.03;1.40;;;14.90;60.30;;;;;;5054032;28;20236;-64
2024/03/25 04:57:52;;;;;;;2.75;1.42;;;14.90;60.20;;;;;;5054131;28;20174;-65
2024/03/25 05:00:18;;;;;;;3.05;1.40;;;14.90;60.20;;;;;;5053495;28;20229;-65
2024/03/25 05:02:43;;;;;;;2.45;1.77;;;14.90;60.20;;;;;;5054435;28;20175;-64
2024/03/25 05:05:09;;;;;;;2.47;1.30;;;14.90;60.30;;;;;;5054032;28;20175;-64
2024/03/25 05:07:35;;;;;;;2.30;1.40;;;14.90;60.20;;;;;;5053517;28;20221;-65
2024/03/25 05:10:01;;;;;;;2.78;1.38;;;14.90;60.30;;;;;;5052831;28;20975;-65
2024/03/25 05:12:29;;;;;;;3.35;1.63;;;14.80;60.30;;;;;;5053783;28;20638;-65
2024/03/25 05:14:55;;;;;;;2.03;1.17;;;14.90;60.30;;;;;;5053383;28;20185;-64
2024/03/25 05:17:21;;;;;;;4.13;1.65;;;14.90;60.30;;;;;;5053850;28;20190;-64
2024/03/25 05:19:46;;;;;;;3.22;1.65;;;14.90;60.40;;;;;;5054089;28;20171;-64
2024/03/25 05:22:12;;;;;;;2.72;1.42;;;14.90;60.40;;;;;;5052815;28;20175;-65
2024/03/25 05:24:38;;;;;;;3.60;1.55;;;14.90;60.40;;;;;;5053941;28;20183;-64
2024/03/25 05:27:03;;;;;;;4.35;2.00;;;14.80;60.30;;;;;;5053923;28;20179;-63
2024/03/25 05:29:29;;;;;;;4.55;1.50;;;14.90;60.40;;;;;;5052897;28;20638;-63
2024/03/25 05:32:01;;;;;;;3.08;1.60;;;14.80;60.30;;;;;;5053640;28;20630;-64
2024/03/25 05:34:27;;;;;;;2.42;1.52;;;14.90;60.30;;;;;;5053462;28;20171;-65
2024/03/25 05:36:55;;;;;;;4.75;1.60;;;14.90;60.40;;;;;;5052915;28;20178;-64
2024/03/25 05:39:21;;;;;;;3.03;1.48;;;14.80;60.30;;;;;;5053167;28;20229;-65
2024/03/25 05:41:47;;;;;;;4.35;1.63;;;14.80;60.20;;;;;;5053035;28;20638;-65
2024/03/25 05:44:12;;;;;;;2.88;1.63;;;14.80;60.40;;;;;;5052099;28;20176;-64
2024/03/25 05:46:39;;;;;;;4.32;1.70;;;14.80;60.40;;;;;;5053388;28;20181;-64
2024/03/25 05:49:04;;;;;;;5.47;1.73;;;14.80;60.40;;;;;;5053396;28;20450;-64
2024/03/25 05:51:30;;;;;;;2.97;1.80;;;14.80;60.40;;;;;;5052371;28;20241;-64
2024/03/25 05:53:56;;;;;;;3.05;1.48;;;14.80;60.30;;;;;;5053223;28;20182;-64
2024/03/25 05:56:21;;;;;;;2.08;1.58;;;14.90;60.20;;;;;;5052551;28;20178;-65
2024/03/25 05:58:47;;;;;;;3.38;1.77;;;14.90;60.00;;;;;;5053259;28;20174;-64
2024/03/25 06:01:13;;;;;;;2.67;1.70;;;15.00;60.00;;;;;;5052871;28;20544;-65
2024/03/25 06:03:38;;;;;;;2.75;1.30;;;15.10;59.90;;;;;;5052512;28;20630;-64
2024/03/25 06:06:04;;;;;;;2.58;1.10;;;15.20;59.90;;;;;;5053091;28;20171;-64
2024/03/25 06:08:30;;;;;;;3.00;1.45;;;15.20;59.80;;;;;;5052683;28;20642;-65
2024/03/25 06:11:00;;;;;;;4.25;1.48;;;15.30;59.80;;;;;;5052444;28;20696;-65
2024/03/25 06:13:26;;;;;;;2.63;1.58;;;15.40;59.70;;;;;;5052640;28;20656;-64
2024/03/25 06:15:51;;;;;;;2.17;1.27;;;15.40;59.60;;;;;;5052742;28;20213;-64
2024/03/25 06:18:17;;;;;;;2.00;1.23;;;15.50;59.50;;;;;;5051996;28;20211;-64
2024/03/25 06:20:42;;;;;;;3.83;1.80;;;15.60;59.40;;;;;;5052868;28;20199;-65
2024/03/25 06:23:08;;;;;;;2.20;1.60;;;15.70;59.40;;;;;;5052303;28;20264;-64
2024/03/25 06:25:35;;;;;;;3.15;1.85;;;15.70;59.10;;;;;;5052095;28;20199;-64
2024/03/25 06:28:01;;;;;;;3.05;1.45;;;15.80;59.60;;;;;;5052890;28;20202;-64
2024/03/25 06:35:55;;;;;;;5.20;1.80;;;16.00;58.80;;;;;;5052535;28;20182;-65
2024/03/25 06:38:20;;;;;;;3.65;1.65;;;16.00;58.70;;;;;;5052115;28;20171;-65
2024/03/25 06:40:46;;;;;;;2.85;1.35;;;16.10;58.70;;;;;;5051906;28;20589;-64
2024/03/25 06:43:11;;;;;;;3.15;1.67;;;16.10;58.60;;;;;;5051976;28;20257;-64
2024/03/25 06:45:37;;;;;;;2.47;1.60;;;16.20;58.60;;;;;;5051709;28;20190;-64
2024/03/25 06:48:03;;;;;;;2.45;1.38;;;16.20;58.60;;;;;;5052194;28;20175;-64
2024/03/25 06:50:28;;;;;;;1.63;1.08;;;16.20;58.50;;;;;;5052109;28;20219;-64
2024/03/25 06:52:54;;;;;;;3.08;1.55;;;16.30;58.50;;;;;;5051570;28;20178;-64
2024/03/25 06:55:22;;;;;;;3.90;1.67;;;16.40;58.40;;;;;;5051144;28;20175;-64
2024/03/25 06:57:51;;;;;;;2.72;1.20;;;16.60;58.20;;;;;;5052288;28;20292;-64
2024/03/25 07:00:17;;;;;;;3.38;1.50;;;16.80;57.90;;;;;;5051107;28;20171;-64
2024/03/25 07:02:42;;;;;;;3.70;1.38;;;16.90;57.60;;;;;;5052061;28;20178;-64
2024/03/25 07:05:08;;;;;;;4.40;1.45;;;17.00;57.50;;;;;;5051870;28;20179;-64
2024/03/25 07:07:34;;;;;;;2.45;1.50;;;17.10;57.30;;;;;;5051283;28;20183;-65
2024/03/25 07:10:00;;;;;;;2.30;1.20;;;17.20;57.20;;;;;;5051797;28;20297;-64
2024/03/25 07:12:25;;;;;;;2.38;1.35;;;17.20;57.60;;;;;;5051626;28;20177;-65
2024/03/25 07:14:51;;;;;;;3.03;1.17;;;17.30;57.00;;;;;;5051035;28;20551;-64
2024/03/25 07:17:16;;;;;;;2.58;1.20;;;17.30;57.00;;;;;;5051382;28;20641;-64
2024/03/25 07:19:43;;;;;;;5.45;2.22;;;17.40;56.80;;;;;;5051666;28;20270;-63
2024/03/25 07:22:08;;;;;;;3.58;1.77;;;17.50;56.90;;;;;;5050614;28;20179;-64
2024/03/25 07:24:34;;;;;;;3.40;1.52;;;17.50;57.10;;;;;;5051757;28;20174;-64
2024/03/25 07:26:59;;;;;;;2.47;1.50;;;17.50;57.10;;;;;;5051513;28;20178;-62
2024/03/25 07:29:25;;;;;;;4.45;1.63;;;17.50;57.30;;;;;;5050638;28;20175;-64
2024/03/25 07:31:50;;;;;;;3.20;1.50;;;17.50;57.30;;;;;;5051462;28;20179;-63
2024/03/25 07:34:16;;;;;;;2.20;1.13;;;17.50;57.30;;;;;;5051358;28;20183;-64
2024/03/25 07:36:42;;;;;;;5.75;2.03;;;17.60;57.50;;;;;;5050842;28;20179;-64
2024/03/25 07:39:10;;;;;;;3.28;1.50;;;17.60;57.50;;;;;;5051562;28;20190;-64
2024/03/25 07:41:38;;;;;;;3.60;1.70;;;17.60;57.60;;;;;;5051497;28;20306;-64
2024/03/25 07:44:04;;;;;;;4.38;1.98;;;17.60;57.60;;;;;;5050794;28;20629;-64
2024/03/25 07:46:30;;;;;;;3.80;1.50;;;17.50;57.70;;;;;;5051201;28;20228;-64
2024/03/25 07:48:58;;;;;;;7.82;1.73;;;17.60;57.70;;;;;;5050454;28;20179;-63
2024/03/25 07:51:24;;;;;;;3.85;1.67;;;17.90;57.90;;;;;;5050814;28;20214;-64
2024/03/25 07:53:50;;;;;;;5.18;2.00;;;17.60;57.70;;;;;;5051349;28;20297;-63
2024/03/25 07:56:15;;;;;;;5.40;1.63;;;17.60;57.80;;;;;;5050157;28;20630;-64
2024/03/25 07:58:41;;;;;;;5.53;1.92;;;17.60;57.90;;;;;;5051420;28;20175;-64
2024/03/25 08:01:07;;;;;;;5.35;1.50;;;17.50;58.00;;;;;;5051207;28;20178;-64
2024/03/25 08:03:33;;;;;;;5.47;1.60;;;17.60;58.20;;;;;;5050596;28;20656;-63
2024/03/25 08:05:59;;;;;;;4.00;1.60;;;17.60;58.10;;;;;;5052849;28;20175;-65
2024/03/25 08:08:24;;;;;;;5.82;1.88;;;17.60;58.20;;;;;;5054425;28;20174;-65
2024/03/25 08:10:52;;;;;;;6.53;2.22;;;17.60;58.20;;;;;;5053861;28;20686;-65
2024/03/25 08:13:19;;;;;;;4.60;1.58;;;17.60;58.30;;;;;;5054568;28;20179;-64
2024/03/25 08:15:45;;;;;;;3.67;1.65;;;17.60;58.40;;;;;;5054946;28;20183;-64
2024/03/25 08:18:10;;;;;;;5.07;1.70;;;17.60;58.50;;;;;;5053448;28;20679;-63
2024/03/25 08:20:36;;;;;;;5.15;1.77;;;17.60;58.50;;;;;;5054906;28;20187;-64
2024/03/25 08:23:01;;;;;;;5.15;1.85;;;17.60;58.50;;;;;;5055129;28;20184;-64
2024/03/25 08:25:27;;;;;;;5.38;2.03;;;17.60;58.60;;;;;;5054028;28;20182;-64
2024/03/25 08:27:52;;;;;;;5.13;1.70;;;17.60;58.70;;;;;;5054833;28;20173;-64
2024/03/25 08:30:18;;;;;;;3.83;1.50;;;17.50;58.80;;;;;;5054409;28;20215;-63
2024/03/25 08:32:43;;;;;;;2.45;1.33;;;17.40;58.90;;;;;;5054376;28;20258;-63
2024/03/25 08:35:09;;;;;;;6.63;1.83;;;17.40;59.10;;;;;;5054550;28;20182;-63
2024/03/25 08:37:34;;;;;;;5.60;1.90;;;17.40;59.20;;;;;;5054954;28;20175;-64
2024/03/25 08:40:00;;;;;;;4.85;1.40;;;17.30;59.20;;;;;;5053795;28;20210;-64
2024/03/25 08:42:25;;;;;;;6.45;1.80;;;17.30;59.30;;;;;;5054445;28;20206;-64
2024/03/25 08:44:51;;;;;;;4.28;1.77;;;17.30;59.40;;;;;;5054491;28;20540;-63
2024/03/25 08:47:16;;;;;;;4.40;1.75;;;17.30;59.50;;;;;;5053798;28;20179;-63
2024/03/25 08:49:42;;;;;;;4.97;1.83;;;17.30;59.60;;;;;;5054680;28;20513;-63
2024/03/25 08:52:08;;;;;;;3.33;1.55;;;17.20;59.50;;;;;;5053538;28;20656;-63
2024/03/25 08:54:34;;;;;;;2.50;1.35;;;17.20;59.50;;;;;;5054492;28;20269;-63
2024/03/25 08:57:00;;;;;;;3.90;1.70;;;17.20;59.60;;;;;;5054422;28;20194;-63
2024/03/25 08:59:25;;;;;;;4.93;1.50;;;17.20;59.60;;;;;;5053328;28;20171;-63
2024/03/25 09:01:51;;;;;;;4.55;1.63;;;17.20;59.60;;;;;;5054584;28;20547;-63
2024/03/25 09:04:16;;;;;;;3.95;1.90;;;17.20;59.60;;;;;;5054039;28;20661;-64
2024/03/25 09:06:42;;;;;;;4.25;1.83;;;17.20;59.60;;;;;;5053531;28;20182;-63
2024/03/25 09:11:51;;;;;;;3.83;1.73;;;17.20;59.60;;;;;;5054118;28;20197;-64
2024/03/25 09:14:17;;;;;;;3.83;1.77;;;17.20;59.60;;;;;;5053477;28;20575;-64
2024/03/25 09:16:43;;;;;;;3.65;1.50;;;17.30;60.40;;;;;;5053546;28;20657;-64
2024/03/25 09:19:09;;;;;;;4.88;2.20;;;17.30;59.70;;;;;;5053063;28;20644;-63
2024/03/25 09:21:34;;;;;;;5.82;2.15;;;17.30;59.70;;;;;;5053431;28;20175;-64
2024/03/25 09:24:00;;;;;;;4.93;1.70;;;17.30;59.70;;;;;;5053851;28;20178;-63
2024/03/25 09:26:26;;;;;;;3.33;1.48;;;17.30;59.70;;;;;;5053539;28;20626;-63
2024/03/25 09:28:52;;;;;;;2.70;1.35;;;17.30;59.70;;;;;;5053065;28;20600;-63
2024/03/25 09:31:17;;;;;;;4.43;1.75;;;17.30;59.80;;;;;;5053537;28;20300;-63
2024/03/25 09:33:43;;;;;;;3.78;1.75;;;17.20;59.90;;;;;;5053923;28;20511;-63
2024/03/25 09:36:08;;;;;;;3.28;1.65;;;17.20;59.80;;;;;;5052757;28;20544;-64
2024/03/25 09:38:34;;;;;;;3.83;1.52;;;17.20;60.00;;;;;;5053695;28;20950;-64
2024/03/25 09:40:59;;;;;;;5.35;1.90;;;17.10;59.80;;;;;;5053352;28;20237;-64
2024/03/25 09:43:28;;;;;;;3.70;1.55;;;17.20;59.80;;;;;;5051504;28;20253;-63
2024/03/25 09:45:53;;;;;;;3.92;1.45;;;17.20;59.80;;;;;;5052390;28;20551;-63
2024/03/25 09:48:19;;;;;;;4.68;2.15;;;17.30;59.70;;;;;;5051118;28;20622;-63
2024/03/25 09:50:44;;;;;;;2.70;1.40;;;17.30;59.70;;;;;;5052071;28;20211;-63
2024/03/25 09:53:10;;;;;;;3.25;1.50;;;17.30;59.80;;;;;;5052907;28;20175;-63
2024/03/25 09:55:35;;;;;;;4.18;1.27;;;17.30;59.80;;;;;;5052630;28;20186;-63
2024/03/25 09:58:02;;;;;;;3.55;1.30;;;17.20;59.80;;;;;;5053323;28;20181;-63
2024/03/25 10:00:28;;;;;;;3.88;1.75;;;17.20;60.00;;;;;;5051913;28;20202;-63
2024/03/25 10:02:54;;;;;;;4.80;2.22;;;17.20;60.00;;;;;;5051227;28;20172;-63
2024/03/25 10:05:20;;;;;;;1.77;1.25;;;17.20;60.00;;;;;;5053064;28;20167;-64
2024/03/25 10:07:45;;;;;;;3.42;1.48;;;17.20;59.90;;;;;;5053150;28;20171;-64
2024/03/25 10:10:11;;;;;;;3.70;1.50;;;17.20;59.90;;;;;;5051711;28;20217;-64
2024/03/25 10:12:36;;;;;;;2.88;1.45;;;17.30;59.80;;;;;;5053365;28;20171;-63
2024/03/25 10:15:05;;;;;;;4.18;1.58;;;17.30;59.80;;;;;;5053005;28;20578;-63
2024/03/25 10:17:31;;;;;;;4.65;1.65;;;17.30;59.70;;;;;;5052103;28;20175;-63
2024/03/25 10:19:59;;;;;;;4.63;1.58;;;17.30;59.70;;;;;;5052913;28;20179;-63
2024/03/25 10:22:25;;;;;;;4.25;1.35;;;17.40;59.70;;;;;;5052631;28;20233;-63
2024/03/25 10:24:50;;;;;;;3.75;1.33;;;17.30;59.70;;;;;;5051865;28;20183;-63
2024/03/25 10:27:20;;;;;;;4.38;1.80;;;17.30;59.60;;;;;;5052609;28;20203;-63
2024/03/25 10:29:46;;;;;;;3.83;1.35;;;17.40;59.60;;;;;;5052460;28;20183;-62
2024/03/25 10:32:15;;;;;;;5.53;1.75;;;17.40;59.60;;;;;;5051524;28;20179;-63
2024/03/25 10:34:41;;;;;;;3.25;1.40;;;17.50;59.50;;;;;;5052514;28;20502;-64
2024/03/25 10:37:08;;;;;;;4.07;1.70;;;17.40;59.40;;;;;;5052536;28;20197;-63
2024/03/25 10:39:34;;;;;;;4.65;1.77;;;17.50;59.40;;;;;;5051811;28;20303;-65
2024/03/25 10:42:02;;;;;;;3.22;1.55;;;17.50;59.30;;;;;;5051312;28;20262;-64
2024/03/25 10:44:28;;;;;;;3.53;1.20;;;17.50;59.30;;;;;;5050898;28;21034;-64
2024/03/25 10:46:57;;;;;;;3.20;1.27;;;17.50;59.40;;;;;;5051095;28;20634;-63
2024/03/25 10:49:37;;;;;;;3.00;1.52;;;17.50;59.40;;;;;;5050617;28;20297;-62
2024/03/25 10:52:02;;;;;;;3.10;1.20;;;17.50;59.40;;;;;;5050317;28;20202;-62
2024/03/25 10:54:30;;;;;;;3.67;1.38;;;17.50;59.50;;;;;;5050649;28;20175;-63
2024/03/25 10:56:57;;;;;;;1.98;1.30;;;17.50;59.50;;;;;;5050892;28;20187;-63
2024/03/25 10:59:24;;;;;;;2.50;1.40;;;17.40;59.50;;;;;;5049949;28;20293;-63
2024/03/25 11:01:49;;;;;;;3.25;1.70;;;17.50;59.70;;;;;;5050935;28;20175;-63
2024/03/25 11:04:15;;;;;;;2.40;1.20;;;17.50;59.70;;;;;;5051614;28;20171;-63
2024/03/25 11:06:41;;;;;;;4.32;1.40;;;17.50;59.60;;;;;;5050391;28;20226;-63
2024/03/25 11:09:06;;;;;;;3.65;1.25;;;17.50;59.50;;;;;;5052018;28;20256;-63
2024/03/25 11:11:33;;;;;;;3.30;1.23;;;17.50;59.50;;;;;;5051486;28;20674;-64
2024/03/25 11:13:59;;;;;;;3.20;1.52;;;17.50;59.40;;;;;;5050061;28;20254;-63
2024/03/25 11:16:30;;;;;;;3.25;1.65;;;17.60;59.50;;;;;;5051547;28;20294;-63
2024/03/25 11:19:03;;;;;;;2.75;1.30;;;17.60;59.50;;;;;;5051675;28;20172;-63
2024/03/25 11:21:29;;;;;;;5.20;1.77;;;17.60;59.40;;;;;;5051056;28;20617;-63
2024/03/25 11:23:54;;;;;;;3.55;1.48;;;17.60;59.40;;;;;;5051827;28;20195;-63
2024/03/25 11:26:24;;;;;;;4.28;1.42;;;17.50;59.50;;;;;;5051383;28;20586;-63
2024/03/25 11:28:50;;;;;;;4.05;1.75;;;17.50;59.60;;;;;;5050974;28;20217;-63
2024/03/25 11:31:16;;;;;;;2.88;1.02;;;17.60;59.60;;;;;;5051169;28;20211;-63
2024/03/25 11:33:42;;;;;;;3.60;1.35;;;17.50;59.60;;;;;;5050336;28;20175;-63
2024/03/25 11:36:07;;;;;;;1.85;1.10;;;17.50;59.60;;;;;;5050771;28;20187;-64
2024/03/25 11:38:42;;;;;;;2.80;1.38;;;17.50;59.50;;;;;;5051778;28;20259;-64
2024/03/25 11:41:07;;;;;;;3.33;1.55;;;17.50;59.50;;;;;;5052657;28;20336;-63
2024/03/25 11:43:33;;;;;;;3.63;1.20;;;17.50;59.50;;;;;;5055728;28;20270;-63
2024/03/25 11:45:58;;;;;;;3.58;1.13;;;17.60;59.50;;;;;;5055599;28;20189;-63
2024/03/25 11:48:25;;;;;;;3.17;1.48;;;17.60;59.50;;;;;;5054569;28;20655;-62
2024/03/25 11:50:51;;;;;;;2.17;1.52;;;17.60;59.50;;;;;;5054450;28;20298;-63
2024/03/25 11:53:16;;;;;;;2.60;1.27;;;17.70;59.40;;;;;;5055111;28;20175;-63
2024/03/25 11:55:46;;;;;;;2.08;1.13;;;17.70;59.20;;;;;;5054883;28;20514;-63
2024/03/25 11:58:12;;;;;;;3.20;1.25;;;17.70;59.40;;;;;;5055004;28;20634;-63
2024/03/25 12:00:44;;;;;;;3.63;1.52;;;17.70;59.50;;;;;;5054113;28;20178;-62
2024/03/25 12:03:11;;;;;;;2.67;0.93;;;17.60;59.50;;;;;;5053204;28;20190;-63
2024/03/25 12:05:37;;;;;;;2.42;1.17;;;17.60;59.60;;;;;;5055399;28;20178;-64
2024/03/25 12:08:02;;;;;;;2.50;1.00;;;17.60;59.80;;;;;;5054031;28;20175;-63
2024/03/25 12:13:12;;;;;;;2.08;1.13;;;17.50;60.20;;;;;;5053891;28;20193;-62
2024/03/25 12:15:37;;;;;;;3.10;1.48;;;17.40;60.50;;;;;;5055467;28;20262;-62
2024/03/25 12:18:03;;;;;;;5.68;1.45;;;17.50;60.70;;;;;;5053313;28;20167;-64
2024/03/25 12:20:29;;;;;;;3.95;1.35;;;17.60;60.40;;;;;;5053402;28;20270;-63
2024/03/25 12:22:54;;;;;;;3.28;1.20;;;17.70;59.90;;;;;;5053463;28;20203;-63
2024/03/25 12:25:20;;;;;;;3.03;1.13;;;17.60;60.00;;;;;;5053293;28;20223;-64
2024/03/25 12:27:46;;;;;;;3.80;1.42;;;17.60;59.90;;;;;;5054812;28;20586;-63
2024/03/25 12:30:12;;;;;;;3.83;1.60;;;17.60;59.70;;;;;;5053890;28;20612;-63
2024/03/25 12:32:44;;;;;;;2.22;1.27;;;17.70;59.60;;;;;;5054783;28;20806;-63
2024/03/25 12:35:10;;;;;;;2.67;1.05;;;17.70;59.50;;;;;;5054491;28;20190;-63
2024/03/25 12:37:43;;;;;;;2.38;1.20;;;17.80;59.50;;;;;;5054175;28;20175;-64
2024/03/25 12:40:28;;;;;;;5.03;1.15;;;17.60;59.80;;;;;;5054187;28;20238;-64
2024/03/25 12:42:53;;;;;;;6.75;1.42;;;17.50;60.10;;;;;;5054758;28;20355;-63
2024/03/25 12:45:20;;;;;;;2.83;1.00;;;17.40;60.30;;;;;;5053786;28;20659;-63
2024/03/25 12:47:46;;;;;;;2.55;1.33;;;17.50;60.20;;;;;;5053338;28;20186;-63
2024/03/25 12:50:12;;;;;;;2.80;1.40;;;17.60;60.00;;;;;;5054013;28;20202;-63
2024/03/25 12:52:37;;;;;;;3.13;1.30;;;17.60;59.90;;;;;;5053400;28;20183;-63